Time;durP1;ratioP1;P1;durP2;ratioP2;P2;SDS_P1;SDS_P2;PMS_P1;PMS_P2;Temp;Humidity;BMP_temperature;BMP_pressure;BME280_temperature;BME280_humidity;BME280_pressure;Samples;Min_cycle;Max_cycle;Signal;HPM_P1;HPM_P2
2023/07/08 00:01:36;;;;;;;;;;;;;;;19.73;42.16;98226.97;4963079;28;19937;-64
2023/07/08 00:04:07;;;;;;;;;;;;;;;19.96;41.23;98226.19;4964313;28;19973;-59
2023/07/08 00:07:00;;;;;;;;;;;;;;;20.06;41.02;98222.84;4960940;28;19930;-60
2023/07/08 00:09:53;;;;;;;;;;;;;;;19.84;41.46;98222.44;4963990;28;19930;-64
2023/07/08 00:13:11;;;;;;;;;;;;;;;19.99;41.01;98217.22;4962568;28;19926;-62
2023/07/08 00:15:41;;;;;;;;;;;;;;;19.91;40.88;98215.47;4962809;28;20016;-58
2023/07/08 00:18:11;;;;;;;;;;;;;;;19.97;40.91;98217.56;4963635;28;19934;-62
2023/07/08 00:20:39;;;;;;;;;;;;;;;19.51;41.67;98219.41;4962275;28;20392;-59
2023/07/08 00:23:35;;;;;;;;;;;;;;;19.56;41.69;98214.41;4962871;28;19933;-61
2023/07/08 00:29:22;;;;;;;;;;;;;;;19.63;41.80;98216.53;4960885;28;19958;-62
2023/07/08 00:31:50;;;;;;;;;;;;;;;19.70;40.98;98215.84;4962314;28;19934;-67
2023/07/08 00:34:18;;;;;;;;;;;;;;;19.53;41.64;98211.56;4978022;28;20033;-61
2023/07/08 00:36:46;;;;;;;;;;;;;;;19.51;41.19;98213.88;4961920;28;19985;-65
2023/07/08 00:39:14;;;;;;;;;;;;;;;19.57;40.95;98209.69;4976869;28;19936;-60
2023/07/08 00:41:42;;;;;;;;;;;;;;;19.66;40.76;98210.28;4962937;28;19930;-62
2023/07/08 00:44:12;;;;;;;;;;;;;;;19.61;40.93;98208.63;4963292;28;22019;-58
2023/07/08 00:46:48;;;;;;;;;;;;;;;19.79;40.67;98211.72;4964576;28;19925;-62
2023/07/08 00:49:27;;;;;;;;;;;;;;;19.72;40.60;98208.84;4977187;28;21791;-62
2023/07/08 00:51:55;;;;;;;;;;;;;;;19.69;40.93;98201.28;4961717;28;19981;-62
2023/07/08 00:54:23;;;;;;;;;;;;;;;19.61;41.27;98216.88;4960047;28;19938;-60
2023/07/08 00:56:53;;;;;;;;;;;;;;;19.50;41.33;98213.09;4960685;28;22858;-60
2023/07/08 00:59:23;;;;;;;;;;;;;;;19.38;41.73;98222.28;4963326;28;19934;-59
2023/07/08 01:02:17;;;;;;;;;;;;;;;19.44;41.65;98217.31;4963138;28;19937;-62
2023/07/08 01:05:11;;;;;;;;;;;;;;;19.54;41.26;98218.66;4959985;28;19930;-59
2023/07/08 01:07:40;;;;;;;;;;;;;;;19.28;42.17;98217.38;4962287;28;19961;-62
2023/07/08 01:10:12;;;;;;;;;;;;;;;19.48;41.77;98209.88;4958231;28;19992;-60
2023/07/08 01:12:41;;;;;;;;;;;;;;;19.44;41.63;98208.22;4963377;28;19996;-64
2023/07/08 01:15:10;;;;;;;;;;;;;;;19.21;42.36;98197.13;4973269;28;19974;-61
2023/07/08 01:17:39;;;;;;;;;;;;;;;19.23;42.40;98201.13;4974221;28;19934;-64
2023/07/08 01:20:12;;;;;;;;;;;;;;;19.26;42.26;98194.88;4961254;28;20005;-60
2023/07/08 01:22:42;;;;;;;;;;;;;;;19.40;42.13;98202.66;4962051;28;19930;-61
2023/07/08 01:25:12;;;;;;;;;;;;;;;19.21;42.88;98195.16;4960341;28;20636;-65
2023/07/08 01:27:40;;;;;;;;;;;;;;;19.04;42.97;98190.88;4959687;28;20009;-60
2023/07/08 01:30:09;;;;;;;;;;;;;;;19.04;43.27;98196.38;4962325;28;19937;-59
2023/07/08 01:32:38;;;;;;;;;;;;;;;18.92;43.55;98198.47;4960079;28;19949;-62
2023/07/08 01:35:07;;;;;;;;;;;;;;;18.81;43.60;98190.75;4975137;28;19944;-62
2023/07/08 01:40:53;;;;;;;;;;;;;;;18.73;43.31;98191.75;4962662;28;19958;-59
2023/07/08 01:43:21;;;;;;;;;;;;;;;18.55;43.64;98190.50;4960905;28;19957;-59
2023/07/08 01:45:49;;;;;;;;;;;;;;;18.50;43.68;98193.53;4966601;28;19938;-59
2023/07/08 01:48:18;;;;;;;;;;;;;;;18.72;42.96;98198.41;4964845;28;20029;-60
2023/07/08 01:50:47;;;;;;;;;;;;;;;18.63;43.38;98185.97;4965527;28;19941;-67
2023/07/08 01:53:15;;;;;;;;;;;;;;;18.39;44.08;98189.72;4965401;28;19934;-59
2023/07/08 01:55:44;;;;;;;;;;;;;;;18.32;44.26;98193.91;4964921;28;19932;-61
2023/07/08 01:58:13;;;;;;;;;;;;;;;18.27;44.30;98191.41;4963080;28;19945;-61
2023/07/08 02:00:43;;;;;;;;;;;;;;;18.42;44.11;98191.75;4961297;28;19930;-61
2023/07/08 02:03:35;;;;;;;;;;;;;;;18.68;43.37;98189.25;4967355;28;19965;-59
2023/07/08 02:07:16;;;;;;;;;;;;;;;18.60;43.63;98190.25;4965582;28;20376;-60
2023/07/08 02:09:45;;;;;;;;;;;;;;;18.50;43.66;98199.03;4978391;28;20301;-60
2023/07/08 02:12:13;;;;;;;;;;;;;;;18.35;44.21;98206.13;4978619;28;19941;-58
2023/07/08 02:14:43;;;;;;;;;;;;;;;18.26;44.47;98200.00;4967823;28;19973;-59
2023/07/08 02:17:11;;;;;;;;;;;;;;;18.12;44.99;98194.97;4984734;28;19926;-59
2023/07/08 02:19:39;;;;;;;;;;;;;;;18.20;44.74;98196.72;4985202;28;19930;-61
2023/07/08 02:22:07;;;;;;;;;;;;;;;18.05;44.49;98197.50;4989688;28;20451;-62
2023/07/08 02:24:36;;;;;;;;;;;;;;;18.14;44.71;98191.84;4962602;28;19930;-60
2023/07/08 02:27:05;;;;;;;;;;;;;;;18.21;44.69;98195.56;4964470;28;20644;-62
2023/07/08 02:29:33;;;;;;;;;;;;;;;18.14;45.10;98192.66;4976754;28;19937;-59
2023/07/08 02:32:02;;;;;;;;;;;;;;;18.27;44.55;98191.41;4966398;28;19934;-59
2023/07/08 02:34:30;;;;;;;;;;;;;;;18.31;44.60;98202.50;4963499;28;19938;-61
2023/07/08 02:37:00;;;;;;;;;;;;;;;18.27;44.68;98198.88;4965594;28;20005;-58
2023/07/08 02:39:28;;;;;;;;;;;;;;;18.32;44.62;98193.91;4963890;28;20339;-60
2023/07/08 02:41:57;;;;;;;;;;;;;;;18.18;45.00;98192.75;4966373;28;20310;-59
2023/07/08 02:44:26;;;;;;;;;;;;;;;18.28;44.99;98193.00;4960984;28;19988;-62
2023/07/08 02:49:48;;;;;;;;;;;;;;;18.02;45.30;98188.03;4977534;28;19930;-62
2023/07/08 02:52:16;;;;;;;;;;;;;;;18.20;44.98;98196.72;4964964;28;19934;-59
2023/07/08 02:54:44;;;;;;;;;;;;;;;18.19;44.84;98194.34;4979370;28;20030;-62
2023/07/08 02:57:12;;;;;;;;;;;;;;;18.07;45.52;98200.72;4964037;28;19934;-63
2023/07/08 02:59:41;;;;;;;;;;;;;;;18.09;45.20;98201.16;4978123;28;20446;-58
2023/07/08 03:05:05;;;;;;;;;;;;;;;18.08;45.45;98199.56;4965722;28;19958;-63
2023/07/08 03:07:34;;;;;;;;;;;;;;;18.18;44.72;98201.78;4981286;28;19934;-65
2023/07/08 03:10:02;;;;;;;;;;;;;;;18.26;44.54;98206.31;4964995;28;19926;-63
2023/07/08 03:12:32;;;;;;;;;;;;;;;18.30;44.71;98211.91;4979591;28;20377;-59
2023/07/08 03:15:01;;;;;;;;;;;;;;;18.33;44.69;98209.25;4976732;28;19926;-61
2023/07/08 03:17:29;;;;;;;;;;;;;;;18.45;44.32;98210.31;4960166;28;20463;-64
2023/07/08 03:19:58;;;;;;;;;;;;;;;18.44;44.38;98216.97;4967118;28;19933;-67
2023/07/08 03:22:27;;;;;;;;;;;;;;;18.16;45.25;98220.56;4963344;28;19985;-63
2023/07/08 03:24:55;;;;;;;;;;;;;;;18.20;45.15;98218.72;4965098;28;19930;-61
2023/07/08 03:27:23;;;;;;;;;;;;;;;18.03;45.61;98217.13;4975786;28;19938;-59
2023/07/08 03:29:52;;;;;;;;;;;;;;;18.10;45.57;98219.25;4963610;28;19984;-59
2023/07/08 03:35:13;;;;;;;;;;;;;;;18.10;45.55;98227.50;4960455;28;19969;-62
2023/07/08 03:38:10;;;;;;;;;;;;;;;18.16;45.16;98222.53;4963703;28;19930;-65
2023/07/08 03:40:40;;;;;;;;;;;;;;;17.95;45.89;98228.25;4958405;28;20295;-63
2023/07/08 03:43:08;;;;;;;;;;;;;;;18.03;45.94;98230.84;4977586;28;20024;-66
2023/07/08 03:45:37;;;;;;;;;;;;;;;18.16;45.51;98239.81;4961270;28;19973;-59
2023/07/08 03:48:06;;;;;;;;;;;;;;;18.21;45.31;98245.06;4962462;28;19926;-63
2023/07/08 03:50:35;;;;;;;;;;;;;;;18.17;45.47;98241.44;4963101;28;20012;-60
2023/07/08 03:53:03;;;;;;;;;;;;;;;18.17;45.45;98235.16;4961094;28;19930;-59
2023/07/08 03:55:35;;;;;;;;;;;;;;;17.99;46.23;98246.47;4963362;28;20036;-61
2023/07/08 03:58:06;;;;;;;;;;;;;;;18.03;46.02;98252.06;4960473;28;20228;-64
2023/07/08 04:01:07;;;;;;;;;;;;;;;17.98;46.34;98244.06;4977856;28;19934;-59
2023/07/08 04:07:28;;;;;;;;;;;;;;;18.04;46.07;98231.66;4953833;28;19930;-60
2023/07/08 04:09:57;;;;;;;;;;;;;;;17.95;46.32;98233.75;4960538;28;19934;-59
2023/07/08 04:12:25;;;;;;;;;;;;;;;18.10;45.92;98232.19;4966159;28;19965;-65
2023/07/08 04:14:55;;;;;;;;;;;;;;;18.10;46.48;98233.00;4963398;28;19936;-61
2023/07/08 04:17:23;;;;;;;;;;;;;;;18.15;45.96;98240.97;4963946;28;20328;-61
2023/07/08 04:19:52;;;;;;;;;;;;;;;18.27;45.62;98237.38;4965331;28;19989;-59
2023/07/08 04:22:20;;;;;;;;;;;;;;;18.25;45.96;98236.91;4963036;28;20481;-60
2023/07/08 04:24:48;;;;;;;;;;;;;;;18.39;45.68;98236.50;4961631;28;20296;-64
2023/07/08 04:27:17;;;;;;;;;;;;;;;18.35;45.78;98230.91;4961339;28;20522;-61
2023/07/08 04:29:45;;;;;;;;;;;;;;;18.33;46.26;98234.00;4962072;28;19937;-65
2023/07/08 04:32:15;;;;;;;;;;;;;;;18.45;46.08;98235.88;4962571;28;20482;-63
2023/07/08 04:34:43;;;;;;;;;;;;;;;18.46;45.91;98231.16;4963764;28;19958;-64
2023/07/08 04:37:11;;;;;;;;;;;;;;;18.47;45.78;98233.53;4960132;28;19926;-63
2023/07/08 04:39:40;;;;;;;;;;;;;;;18.32;46.51;98237.91;4962385;28;19926;-59
2023/07/08 04:42:08;;;;;;;;;;;;;;;18.47;46.53;98230.78;4963911;28;19934;-66
2023/07/08 04:45:04;;;;;;;;;;;;;;;18.55;46.23;98235.34;4960300;28;19930;-59
2023/07/08 04:47:34;;;;;;;;;;;;;;;18.52;46.66;98235.22;4962972;28;19926;-61
2023/07/08 04:50:02;;;;;;;;;;;;;;;18.55;46.99;98231.78;4960850;28;19930;-61
2023/07/08 04:52:30;;;;;;;;;;;;;;;18.69;46.22;98243.16;4962604;28;21691;-60
2023/07/08 04:54:58;;;;;;;;;;;;;;;18.63;46.50;98241.00;4960747;28;20387;-68
2023/07/08 04:57:26;;;;;;;;;;;;;;;18.72;46.27;98242.44;4970497;28;20364;-62
2023/07/08 04:59:54;;;;;;;;;;;;;;;18.73;46.33;98238.53;4976943;28;20394;-62
2023/07/08 05:02:26;;;;;;;;;;;;;;;18.88;45.77;98247.13;4968281;28;20655;-59
2023/07/08 05:04:56;;;;;;;;;;;;;;;18.93;46.17;98244.09;4969789;28;19930;-59
2023/07/08 05:07:24;;;;;;;;;;;;;;;18.98;45.87;98247.38;4970889;28;19926;-65
2023/07/08 05:09:52;;;;;;;;;;;;;;;18.93;46.06;98242.16;4961496;28;19937;-59
2023/07/08 05:12:20;;;;;;;;;;;;;;;18.92;46.94;98254.31;4969577;28;19981;-59
2023/07/08 05:17:40;;;;;;;;;;;;;;;19.04;46.28;98253.41;4966681;28;19926;-59
2023/07/08 05:20:10;;;;;;;;;;;;;;;19.15;45.92;98257.19;4967300;28;19927;-60
2023/07/08 05:22:39;;;;;;;;;;;;;;;19.18;45.75;98255.69;4972623;28;20000;-60
2023/07/08 05:25:08;;;;;;;;;;;;;;;19.17;46.08;98254.06;4967139;28;20335;-59
2023/07/08 05:27:36;;;;;;;;;;;;;;;19.18;46.64;98255.69;4977991;28;19926;-62
2023/07/08 05:30:05;;;;;;;;;;;;;;;18.99;46.49;98256.44;4962198;28;19926;-60
2023/07/08 05:32:33;;;;;;;;;;;;;;;19.24;45.86;98262.53;4977141;28;19949;-59
2023/07/08 05:35:01;;;;;;;;;;;;;;;19.36;45.64;98263.19;4972068;28;20819;-60
2023/07/08 05:37:30;;;;;;;;;;;;;;;19.41;46.32;98264.06;4971165;28;19926;-60
2023/07/08 05:40:00;;;;;;;;;;;;;;;19.45;45.85;98257.47;4972754;28;19925;-67
2023/07/08 05:42:28;;;;;;;;;;;;;;;19.42;45.76;98266.44;4969060;28;19981;-59
2023/07/08 05:44:55;;;;;;;;;;;;;;;19.60;45.47;98272.34;4971858;28;19977;-59
2023/07/08 05:47:24;;;;;;;;;;;;;;;19.59;45.60;98274.31;4965047;28;19926;-60
2023/07/08 05:49:52;;;;;;;;;;;;;;;19.60;46.44;98264.91;4975081;28;19930;-67
2023/07/08 05:52:20;;;;;;;;;;;;;;;19.74;45.74;98263.59;4970693;28;19930;-59
2023/07/08 05:54:49;;;;;;;;;;;;;;;19.81;45.70;98261.75;4974464;28;19976;-59
2023/07/08 05:57:16;;;;;;;;;;;;;;;19.70;45.71;98259.97;4966976;28;19926;-60
2023/07/08 05:59:44;;;;;;;;;;;;;;;19.74;46.02;98267.16;4975074;28;20024;-62
2023/07/08 06:05:06;;;;;;;;;;;;;;;20.01;45.56;98275.53;4974978;28;20024;-60
2023/07/08 06:07:34;;;;;;;;;;;;;;;20.05;45.61;98265.38;4971624;28;19975;-61
2023/07/08 06:10:04;;;;;;;;;;;;;;;20.06;46.13;98278.81;4978899;28;20348;-64
2023/07/08 06:12:32;;;;;;;;;;;;;;;20.11;46.09;98269.44;4967907;28;20517;-59
2023/07/08 06:15:00;;;;;;;;;;;;;;;20.27;45.55;98272.09;4969739;28;20471;-60
2023/07/08 06:17:29;;;;;;;;;;;;;;;20.37;45.63;98266.75;4969657;28;19973;-63
2023/07/08 06:19:57;;;;;;;;;;;;;;;20.43;45.88;98264.50;4975099;28;19957;-62
2023/07/08 06:22:25;;;;;;;;;;;;;;;20.39;45.40;98264.44;4965261;28;20001;-64
2023/07/08 06:24:55;;;;;;;;;;;;;;;20.41;46.10;98264.88;4973012;28;19933;-60
2023/07/08 06:27:25;;;;;;;;;;;;;;;20.52;46.11;98262.31;4980795;28;19926;-60
2023/07/08 06:29:54;;;;;;;;;;;;;;;20.61;45.57;98253.78;4982097;28;20430;-60
2023/07/08 06:32:22;;;;;;;;;;;;;;;20.73;45.22;98261.09;4978479;28;19930;-60
2023/07/08 06:34:49;;;;;;;;;;;;;;;20.79;45.47;98262.38;4990536;28;20005;-60
2023/07/08 06:37:17;;;;;;;;;;;;;;;20.86;45.07;98260.50;4973522;28;20029;-59
2023/07/08 06:39:45;;;;;;;;;;;;;;;20.92;44.55;98261.78;4976220;28;20025;-65
2023/07/08 06:42:14;;;;;;;;;;;;;;;21.04;44.75;98271.03;4982597;28;19932;-66
2023/07/08 06:44:51;;;;;;;;;;;;;;;21.06;45.84;98280.53;4983675;28;19934;-63
2023/07/08 06:47:22;;;;;;;;;;;;;;;21.14;45.23;98275.91;4972840;28;19926;-64
2023/07/08 06:49:50;;;;;;;;;;;;;;;21.26;44.81;98272.94;4989732;28;19932;-66
2023/07/08 06:52:18;;;;;;;;;;;;;;;21.43;44.26;98257.81;4967969;28;19934;-63
2023/07/08 06:54:45;;;;;;;;;;;;;;;21.49;44.22;98259.06;4991935;28;19972;-66
2023/07/08 07:00:28;;;;;;;;;;;;;;;21.66;44.06;98252.16;4976145;28;19926;-65
2023/07/08 07:03:21;;;;;;;;;;;;;;;21.74;43.94;98242.81;4978925;28;19937;-66
2023/07/08 07:05:49;;;;;;;;;;;;;;;21.86;43.98;98245.31;4979592;28;19973;-63
2023/07/08 07:08:18;;;;;;;;;;;;;;;22.05;42.94;98238.81;4982199;28;19973;-63
2023/07/08 07:10:46;;;;;;;;;;;;;;;22.11;43.31;98239.28;4977464;28;19926;-63
2023/07/08 07:13:14;;;;;;;;;;;;;;;22.23;43.12;98230.69;4984612;28;19950;-64
2023/07/08 07:16:32;;;;;;;;;;;;;;;22.32;43.01;98227.59;4976614;28;20497;-67
2023/07/08 07:19:01;;;;;;;;;;;;;;;22.46;42.47;98231.31;4967830;28;20499;-63
2023/07/08 07:21:30;;;;;;;;;;;;;;;22.50;42.29;98234.09;4970769;28;19934;-65
2023/07/08 07:23:57;;;;;;;;;;;;;;;22.55;42.11;98233.75;4971343;28;19926;-63
2023/07/08 07:29:17;;;;;;;;;;;;;;;22.78;41.38;98227.19;4974776;28;20346;-63
2023/07/08 07:31:49;;;;;;;;;;;;;;;22.78;41.46;98236.31;4976774;28;19970;-65
2023/07/08 07:34:17;;;;;;;;;;;;;;;22.84;41.28;98228.44;4981564;28;20130;-64
2023/07/08 07:36:49;;;;;;;;;;;;;;;22.91;41.51;98234.88;4967601;28;19973;-65
2023/07/08 07:39:17;;;;;;;;;;;;;;;22.95;40.79;98234.88;4968065;28;19926;-64
2023/07/08 07:41:45;;;;;;;;;;;;;;;23.19;41.05;98236.22;4965062;28;19926;-64
2023/07/08 07:44:13;;;;;;;;;;;;;;;23.27;40.06;98223.97;4969835;28;19934;-62
2023/07/08 07:46:42;;;;;;;;;;;;;;;23.44;39.90;98242.72;4960120;28;19926;-63
2023/07/08 07:49:12;;;;;;;;;;;;;;;23.38;39.89;98235.91;4970142;28;20380;-64
2023/07/08 07:51:41;;;;;;;;;;;;;;;23.36;40.09;98238.28;4969480;28;20001;-67
2023/07/08 07:54:09;;;;;;;;;;;;;;;23.32;40.12;98237.47;4984133;28;19984;-69
2023/07/08 07:57:02;;;;;;;;;;;;;;;23.52;39.81;98238.75;4977039;28;20021;-65
2023/07/08 07:59:30;;;;;;;;;;;;;;;23.39;39.79;98239.50;4971372;28;19926;-67
2023/07/08 08:01:59;;;;;;;;;;;;;;;23.47;39.57;98235.56;4986747;28;19932;-67
2023/07/08 08:04:29;;;;;;;;;;;;;;;23.55;39.55;98237.22;4972847;28;20397;-65
2023/07/08 08:07:22;;;;;;;;;;;;;;;23.74;38.68;98238.88;4983539;28;20004;-65
2023/07/08 08:10:15;;;;;;;;;;;;;;;23.79;38.69;98236.53;4964798;28;19932;-65
2023/07/08 08:12:43;;;;;;;;;;;;;;;23.87;38.17;98237.34;4973328;28;19958;-64
2023/07/08 08:15:22;;;;;;;;;;;;;;;24.20;37.92;98241.00;4978539;28;19997;-65
2023/07/08 08:17:51;;;;;;;;;;;;;;;24.63;36.01;98244.66;4980970;28;19951;-65
2023/07/08 08:20:22;;;;;;;;;;;;;;;24.28;36.78;98245.38;4976295;28;19934;-65
2023/07/08 08:22:51;;;;;;;;;;;;;;;24.14;37.36;98240.59;4970626;28;19965;-66
2023/07/08 08:25:20;;;;;;;;;;;;;;;24.47;36.07;98242.25;4970546;28;20029;-68
2023/07/08 08:27:48;;;;;;;;;;;;;;;24.32;36.49;98240.63;4969057;28;19934;-65
2023/07/08 08:30:16;;;;;;;;;;;;;;;24.66;35.38;98243.03;4971589;28;19955;-67
2023/07/08 08:32:48;;;;;;;;;;;;;;;24.88;34.35;98238.28;4972315;28;20023;-66
2023/07/08 08:35:18;;;;;;;;;;;;;;;25.27;33.22;98243.81;4972068;28;19970;-65
2023/07/08 08:37:51;;;;;;;;;;;;;;;25.28;33.09;98242.59;4971154;28;19932;-66
2023/07/08 08:40:19;;;;;;;;;;;;;;;25.27;32.90;98239.03;4970990;28;19934;-63
2023/07/08 08:42:53;;;;;;;;;;;;;;;25.17;33.67;98241.84;4974716;28;20284;-63
2023/07/08 08:45:21;;;;;;;;;;;;;;;24.93;33.59;98238.69;4967613;28;19930;-64
2023/07/08 08:47:51;;;;;;;;;;;;;;;24.79;34.52;98235.91;4984976;28;19985;-63
2023/07/08 08:50:25;;;;;;;;;;;;;;;24.76;33.84;98242.25;4979436;28;19937;-64
2023/07/08 08:52:55;;;;;;;;;;;;;;;24.91;34.48;98241.06;4972671;28;20345;-64
2023/07/08 08:55:24;;;;;;;;;;;;;;;24.73;34.62;98249.41;4980726;28;19926;-64
2023/07/08 08:57:57;;;;;;;;;;;;;;;24.73;35.34;98248.63;4966756;28;20391;-67
2023/07/08 09:00:26;;;;;;;;;;;;;;;24.77;34.21;98249.41;4972516;28;19931;-64
2023/07/08 09:02:55;;;;;;;;;;;;;;;25.12;31.44;98247.81;4966865;28;20029;-65
2023/07/08 09:05:23;;;;;;;;;;;;;;;24.80;34.19;98243.03;4984491;28;20252;-65
2023/07/08 09:07:58;;;;;;;;;;;;;;;25.44;29.87;98251.31;4976368;28;19944;-67
2023/07/08 09:10:31;;;;;;;;;;;;;;;25.35;30.95;98248.16;4969760;28;19926;-64
2023/07/08 09:12:59;;;;;;;;;;;;;;;25.49;30.29;98247.31;4972837;28;20398;-69
2023/07/08 09:15:27;;;;;;;;;;;;;;;25.08;34.06;98243.03;4966329;28;20328;-63
2023/07/08 09:17:58;;;;;;;;;;;;;;;25.21;34.59;98245.41;4970360;28;19930;-63
2023/07/08 09:20:28;;;;;;;;;;;;;;;24.85;33.62;98242.66;4968141;28;19932;-65
2023/07/08 09:22:58;;;;;;;;;;;;;;;24.78;34.96;98234.31;4977101;28;19926;-63
2023/07/08 09:25:52;;;;;;;;;;;;;;;24.81;33.60;98239.06;4966800;28;19926;-63
2023/07/08 09:29:09;;;;;;;;;;;;;;;24.91;33.73;98238.28;4964609;28;19927;-65
2023/07/08 09:31:38;;;;;;;;;;;;;;;25.28;32.00;98234.28;4971659;28;19933;-64
2023/07/08 09:34:11;;;;;;;;;;;;;;;25.23;31.58;98251.34;4964601;28;19933;-65
2023/07/08 09:36:40;;;;;;;;;;;;;;;25.07;34.53;98249.00;4975042;28;19926;-64
2023/07/08 09:39:15;;;;;;;;;;;;;;;25.00;35.29;98243.44;4966240;28;19969;-65
2023/07/08 09:41:45;;;;;;;;;;;;;;;24.88;33.61;98250.19;4974764;28;19944;-68
2023/07/08 09:44:19;;;;;;;;;;;;;;;25.15;34.63;98247.81;4969708;28;20030;-64
2023/07/08 09:47:12;;;;;;;;;;;;;;;25.07;33.84;98249.00;4982445;28;19925;-64
2023/07/08 09:49:40;;;;;;;;;;;;;;;25.12;31.59;98253.38;4978219;28;20021;-70
2023/07/08 09:52:12;;;;;;;;;;;;;;;25.29;32.07;98250.53;4965728;28;19957;-66
2023/07/08 09:54:45;;;;;;;;;;;;;;;25.26;32.16;98250.56;4972498;28;19942;-64
2023/07/08 09:57:18;;;;;;;;;;;;;;;25.53;30.72;98248.09;4958593;28;19933;-63
2023/07/08 09:59:47;;;;;;;;;;;;;;;25.27;31.63;98246.59;4977114;28;19926;-64
2023/07/08 10:02:40;;;;;;;;;;;;;;;25.63;29.20;98249.28;4981388;28;19926;-65
2023/07/08 10:05:12;;;;;;;;;;;;;;;25.52;30.50;98255.66;4974344;28;19932;-64
2023/07/08 10:08:04;;;;;;;;;;;;;;;25.37;32.77;98258.88;4969754;28;19928;-65
2023/07/08 10:10:35;;;;;;;;;;;;;;;25.16;34.81;98251.38;4978527;28;19973;-65
2023/07/08 10:13:05;;;;;;;;;;;;;;;25.44;30.28;98245.75;4980987;28;19930;-65
2023/07/08 10:15:35;;;;;;;;;;;;;;;26.06;26.41;98245.13;4975516;28;19930;-65
2023/07/08 10:18:03;;;;;;;;;;;;;;;26.29;28.53;98244.56;4981325;28;19933;-66
2023/07/08 10:20:36;;;;;;;;;;;;;;;26.25;30.63;98245.78;4978756;28;19934;-65
2023/07/08 10:23:07;;;;;;;;;;;;;;;26.23;27.12;98245.41;4982362;28;19926;-65
2023/07/08 10:26:00;;;;;;;;;;;;;;;26.25;27.31;98246.56;4978036;28;19973;-66
2023/07/08 10:29:19;;;;;;;;;;;;;;;26.18;30.65;98252.19;4968303;28;19926;-66
2023/07/08 10:31:48;;;;;;;;;;;;;;;26.18;29.27;98246.63;4970385;28;19926;-67
2023/07/08 10:34:19;;;;;;;;;;;;;;;26.56;27.66;98244.00;4974811;28;19926;-67
2023/07/08 10:36:49;;;;;;;;;;;;;;;26.81;28.06;98239.03;4976748;28;20012;-64
2023/07/08 10:39:43;;;;;;;;;;;;;;;26.45;32.12;98237.72;4985062;28;19934;-66
2023/07/08 10:42:14;;;;;;;;;;;;;;;27.29;25.90;98238.19;4976199;28;20372;-66
2023/07/08 10:44:45;;;;;;;;;;;;;;;26.84;27.39;98240.19;4968781;28;19981;-66
2023/07/08 10:47:17;;;;;;;;;;;;;;;26.52;27.38;98241.25;4964944;28;19927;-64
2023/07/08 10:49:54;;;;;;;;;;;;;;;26.80;26.52;98236.66;4963996;28;19926;-65
2023/07/08 10:52:29;;;;;;;;;;;;;;;26.43;28.24;98240.13;4971825;28;19944;-65
2023/07/08 10:55:00;;;;;;;;;;;;;;;27.12;26.52;98242.75;4979268;28;19981;-64
2023/07/08 10:57:35;;;;;;;;;;;;;;;27.20;25.77;98240.66;4970059;28;19997;-64
2023/07/08 11:00:08;;;;;;;;;;;;;;;26.98;25.83;98234.47;4969786;28;19934;-66
2023/07/08 11:02:55;;;;;;;;;;;;;;;26.55;29.27;98232.06;4971947;28;20462;-65
2023/07/08 11:05:26;;;;;;;;;;;;;;;26.96;25.87;98231.34;4962220;28;19930;-64
2023/07/08 11:07:55;;;;;;;;;;;;;;;27.13;25.42;98226.81;4978100;28;19926;-64
2023/07/08 11:10:24;;;;;;;;;;;;;;;26.38;30.80;98230.19;4973586;28;19925;-65
2023/07/08 11:12:53;;;;;;;;;;;;;;;26.47;26.25;98224.97;4973455;28;19926;-64
2023/07/08 11:15:25;;;;;;;;;;;;;;;27.01;25.67;98224.53;4983611;28;19985;-64
2023/07/08 11:17:54;;;;;;;;;;;;;;;26.98;26.10;98214.97;4988794;28;20530;-68
2023/07/08 11:20:23;;;;;;;;;;;;;;;26.86;28.21;98221.84;4970507;28;19926;-63
2023/07/08 11:22:53;;;;;;;;;;;;;;;26.87;28.53;98215.06;4971226;28;20383;-67
2023/07/08 11:25:45;;;;;;;;;;;;;;;26.58;28.00;98203.41;4966775;28;19961;-61
2023/07/08 11:29:03;;;;;;;;;;;;;;;26.87;28.16;98203.13;4968216;28;19926;-59
2023/07/08 11:34:28;;;;;;;;;;;;;;;27.31;26.43;98209.88;4972360;28;19980;-60
2023/07/08 11:36:56;;;;;;;;;;;;;;;27.63;25.94;98207.47;4975077;28;19968;-61
2023/07/08 11:39:28;;;;;;;;;;;;;;;27.55;25.53;98203.22;4972866;28;19934;-61
2023/07/08 11:42:05;;;;;;;;;;;;;;;27.76;25.03;98202.19;4978985;28;19930;-64
2023/07/08 11:44:59;;;;;;;;;;;;;;;28.13;26.03;98204.06;4967503;28;19926;-60
2023/07/08 11:47:32;;;;;;;;;;;;;;;28.43;25.17;98208.00;4985807;28;19930;-58
2023/07/08 11:50:03;;;;;;;;;;;;;;;28.40;25.12;98198.47;4970211;28;20296;-59
2023/07/08 11:52:31;;;;;;;;;;;;;;;28.34;25.20;98199.41;4973095;28;19934;-62
2023/07/08 11:55:03;;;;;;;;;;;;;;;28.17;25.60;98198.41;4969679;28;20324;-60
2023/07/08 11:57:35;;;;;;;;;;;;;;;27.97;26.41;98198.31;4968990;28;19934;-60
2023/07/08 12:00:17;;;;;;;;;;;;;;;28.43;25.45;98194.81;4966839;28;19926;-61
2023/07/08 12:03:04;;;;;;;;;;;;;;;28.30;24.97;98181.84;4969602;28;19926;-62
2023/07/08 12:05:34;;;;;;;;;;;;;;;27.73;26.88;98185.47;4981657;28;20862;-61
2023/07/08 12:08:03;;;;;;;;;;;;;;;27.62;28.85;98186.38;4965816;28;19965;-61
2023/07/08 12:10:34;;;;;;;;;;;;;;;27.59;27.67;98189.19;4965290;28;19981;-60
2023/07/08 12:13:01;;;;;;;;;;;;;;;27.42;27.32;98191.00;4961296;28;19938;-60
2023/07/08 12:15:30;;;;;;;;;;;;;;;27.55;27.38;98186.47;4969770;28;19930;-59
2023/07/08 12:18:01;;;;;;;;;;;;;;;27.85;27.38;98187.69;4967325;28;20388;-61
2023/07/08 12:20:30;;;;;;;;;;;;;;;27.88;27.48;98181.28;4968906;28;19978;-60
2023/07/08 12:29:13;;;;;;;;;;;;;;;27.83;28.34;98178.94;4965810;28;19926;-62
2023/07/08 12:31:42;;;;;;;;;;;;;;;28.25;27.00;98171.94;4970832;28;19929;-61
2023/07/08 12:34:16;;;;;;;;;;;;;;;28.54;26.00;98189.06;4961932;28;19970;-60
2023/07/08 12:36:44;;;;;;;;;;;;;;;28.31;25.91;98175.84;4961129;28;19933;-60
2023/07/08 12:39:16;;;;;;;;;;;;;;;28.73;24.77;98179.16;4964475;28;19930;-61
2023/07/08 12:41:45;;;;;;;;;;;;;;;28.84;25.39;98184.56;4966514;28;19952;-61
2023/07/08 12:44:16;;;;;;;;;;;;;;;28.47;25.77;98186.38;4961256;28;20057;-59
2023/07/08 12:46:44;;;;;;;;;;;;;;;28.33;28.07;98184.59;4967243;28;19927;-60
2023/07/08 12:49:11;;;;;;;;;;;;;;;28.29;26.61;98185.88;4968863;28;20016;-59
2023/07/08 12:51:44;;;;;;;;;;;;;;;28.43;24.69;98188.44;4966813;28;19981;-59
2023/07/08 12:54:12;;;;;;;;;;;;;;;28.62;24.39;98196.13;4964408;28;20030;-62
2023/07/08 12:59:32;;;;;;;;;;;;;;;28.39;24.63;98191.31;4968377;28;19935;-59
2023/07/08 13:02:00;;;;;;;;;;;;;;;28.24;29.77;98191.94;4970301;28;19934;-58
2023/07/08 13:04:28;;;;;;;;;;;;;;;27.76;27.83;98184.66;4969128;28;20332;-59
2023/07/08 13:07:21;;;;;;;;;;;;;;;27.66;29.40;98175.16;4965594;28;20073;-59
2023/07/08 13:10:19;;;;;;;;;;;;;;;28.18;25.48;98188.81;4963691;28;19927;-59
2023/07/08 13:12:49;;;;;;;;;;;;;;;28.29;26.97;98188.66;4958961;28;20352;-61
2023/07/08 13:15:19;;;;;;;;;;;;;;;28.65;24.38;98189.66;4967685;28;19941;-59
2023/07/08 13:17:47;;;;;;;;;;;;;;;28.87;24.81;98194.88;4959021;28;19930;-60
2023/07/08 13:20:15;;;;;;;;;;;;;;;28.65;25.40;98194.47;4965054;28;19933;-60
2023/07/08 13:22:43;;;;;;;;;;;;;;;28.52;24.84;98187.91;4967350;28;20021;-59
2023/07/08 13:25:15;;;;;;;;;;;;;;;28.09;28.20;98192.13;4957828;28;19950;-59
2023/07/08 13:27:48;;;;;;;;;;;;;;;27.88;26.44;98193.22;4963580;28;19930;-60
2023/07/08 13:30:18;;;;;;;;;;;;;;;28.35;24.87;98195.38;4956932;28;19933;-62
2023/07/08 13:32:49;;;;;;;;;;;;;;;28.06;26.08;98181.00;4964722;28;20422;-59
2023/07/08 13:35:23;;;;;;;;;;;;;;;28.07;27.06;98189.00;4970638;28;19933;-60
2023/07/08 13:37:52;;;;;;;;;;;;;;;28.14;26.82;98199.25;4986287;28;20326;-60
2023/07/08 13:40:20;;;;;;;;;;;;;;;28.62;25.43;98195.34;4968287;28;19926;-60
2023/07/08 13:42:51;;;;;;;;;;;;;;;28.89;24.55;98192.47;4970990;28;19926;-59
2023/07/08 13:45:22;;;;;;;;;;;;;;;28.31;29.07;98197.41;4967688;28;19926;-59
2023/07/08 13:48:01;;;;;;;;;;;;;;;28.17;27.28;98185.22;4969296;28;19933;-59
2023/07/08 13:50:31;;;;;;;;;;;;;;;28.49;25.68;98194.34;4975121;28;19953;-59
2023/07/08 13:52:58;;;;;;;;;;;;;;;28.40;27.26;98186.50;4970172;28;20051;-62
2023/07/08 13:55:26;;;;;;;;;;;;;;;28.95;24.75;98187.97;4968018;28;20387;-59
2023/07/08 13:58:00;;;;;;;;;;;;;;;28.10;28.21;98182.53;4971464;28;19930;-59